sensor_id;sensor_type;location;lat;lon;timestamp;pressure;altitude;pressure_sealevel;temperature;humidity
62849;BME280;48941;49.516;8.286;2022-10-31T00:01:27;100843.09;;;11.38;100.00
62849;BME280;48941;49.516;8.286;2022-10-31T00:03:56;100851.25;;;11.36;100.00
62849;BME280;48941;49.516;8.286;2022-10-31T00:06:24;100847.97;;;11.33;100.00
62849;BME280;48941;49.516;8.286;2022-10-31T00:08:54;100848.44;;;11.27;100.00
62849;BME280;48941;49.516;8.286;2022-10-31T00:11:23;100845.25;;;11.22;100.00
62849;BME280;48941;49.516;8.286;2022-10-31T00:13:51;100836.91;;;11.02;100.00
62849;BME280;48941;49.516;8.286;2022-10-31T00:16:21;100843.22;;;11.01;100.00
62849;BME280;48941;49.516;8.286;2022-10-31T00:18:49;100840.56;;;11.01;100.00
62849;BME280;48941;49.516;8.286;2022-10-31T00:21:18;100843.34;;;11.00;100.00
62849;BME280;48941;49.516;8.286;2022-10-31T00:23:46;100851.22;;;11.01;100.00
62849;BME280;48941;49.516;8.286;2022-10-31T00:26:16;100856.66;;;11.00;100.00
62849;BME280;48941;49.516;8.286;2022-10-31T00:28:45;100848.78;;;10.98;100.00
62849;BME280;48941;49.516;8.286;2022-10-31T00:31:13;100847.44;;;10.92;100.00
62849;BME280;48941;49.516;8.286;2022-10-31T00:33:42;100841.81;;;10.84;100.00
62849;BME280;48941;49.516;8.286;2022-10-31T00:36:12;100851.31;;;10.88;100.00
62849;BME280;48941;49.516;8.286;2022-10-31T00:38:41;100851.91;;;10.92;100.00
62849;BME280;48941;49.516;8.286;2022-10-31T00:41:09;100848.41;;;10.91;100.00
62849;BME280;48941;49.516;8.286;2022-10-31T00:43:38;100850.94;;;10.93;100.00
62849;BME280;48941;49.516;8.286;2022-10-31T00:46:06;100852.53;;;10.95;100.00
62849;BME280;48941;49.516;8.286;2022-10-31T00:48:34;100849.97;;;10.94;100.00
62849;BME280;48941;49.516;8.286;2022-10-31T00:51:02;100863.19;;;10.95;100.00
62849;BME280;48941;49.516;8.286;2022-10-31T00:53:30;100851.69;;;10.95;100.00
62849;BME280;48941;49.516;8.286;2022-10-31T00:55:58;100847.94;;;10.98;100.00
62849;BME280;48941;49.516;8.286;2022-10-31T00:58:26;100858.72;;;10.96;100.00
62849;BME280;48941;49.516;8.286;2022-10-31T01:00:56;100844.88;;;10.91;100.00
62849;BME280;48941;49.516;8.286;2022-10-31T01:03:26;100848.03;;;10.96;100.00
62849;BME280;48941;49.516;8.286;2022-10-31T01:05:57;100856.56;;;11.01;100.00
62849;BME280;48941;49.516;8.286;2022-10-31T01:08:25;100862.53;;;11.05;100.00
62849;BME280;48941;49.516;8.286;2022-10-31T01:11:06;100850.03;;;11.05;100.00
62849;BME280;48941;49.516;8.286;2022-10-31T01:13:35;100851.50;;;11.09;100.00
62849;BME280;48941;49.516;8.286;2022-10-31T01:16:06;100862.06;;;11.11;100.00
62849;BME280;48941;49.516;8.286;2022-10-31T01:18:35;100862.91;;;11.11;100.00
62849;BME280;48941;49.516;8.286;2022-10-31T01:21:06;100867.59;;;11.08;100.00
62849;BME280;48941;49.516;8.286;2022-10-31T01:23:34;100874.13;;;11.04;100.00
62849;BME280;48941;49.516;8.286;2022-10-31T01:26:08;100866.94;;;10.93;100.00
62849;BME280;48941;49.516;8.286;2022-10-31T01:28:37;100857.69;;;10.86;100.00
62849;BME280;48941;49.516;8.286;2022-10-31T01:31:08;100856.31;;;10.80;100.00
62849;BME280;48941;49.516;8.286;2022-10-31T01:33:37;100850.50;;;10.75;100.00
62849;BME280;48941;49.516;8.286;2022-10-31T01:36:18;100846.13;;;10.74;100.00
62849;BME280;48941;49.516;8.286;2022-10-31T01:38:47;100849.66;;;10.74;100.00
62849;BME280;48941;49.516;8.286;2022-10-31T01:41:18;100844.94;;;10.78;100.00
62849;BME280;48941;49.516;8.286;2022-10-31T01:43:49;100848.13;;;10.83;100.00
62849;BME280;48941;49.516;8.286;2022-10-31T01:46:22;100846.72;;;10.90;100.00
62849;BME280;48941;49.516;8.286;2022-10-31T01:48:53;100839.09;;;10.97;100.00
62849;BME280;48941;49.516;8.286;2022-10-31T01:51:25;100850.13;;;11.04;100.00
62849;BME280;48941;49.516;8.286;2022-10-31T01:53:56;100854.16;;;11.09;100.00
62849;BME280;48941;49.516;8.286;2022-10-31T01:56:26;100855.75;;;11.12;100.00
62849;BME280;48941;49.516;8.286;2022-10-31T01:58:54;100854.69;;;11.14;100.00
62849;BME280;48941;49.516;8.286;2022-10-31T02:01:25;100852.13;;;11.13;100.00
62849;BME280;48941;49.516;8.286;2022-10-31T02:03:54;100853.06;;;11.12;100.00
62849;BME280;48941;49.516;8.286;2022-10-31T02:06:32;100863.75;;;11.12;100.00
62849;BME280;48941;49.516;8.286;2022-10-31T02:09:04;100853.31;;;11.09;100.00
62849;BME280;48941;49.516;8.286;2022-10-31T02:11:34;100854.38;;;11.06;100.00
62849;BME280;48941;49.516;8.286;2022-10-31T02:14:04;100852.91;;;11.02;100.00
62849;BME280;48941;49.516;8.286;2022-10-31T02:16:33;100848.19;;;10.94;100.00
62849;BME280;48941;49.516;8.286;2022-10-31T02:19:02;100853.19;;;10.86;100.00
62849;BME280;48941;49.516;8.286;2022-10-31T02:21:37;100855.28;;;10.83;100.00
62849;BME280;48941;49.516;8.286;2022-10-31T02:24:23;100856.75;;;10.87;100.00
62849;BME280;48941;49.516;8.286;2022-10-31T02:27:05;100858.44;;;10.88;100.00
62849;BME280;48941;49.516;8.286;2022-10-31T02:29:55;100848.84;;;10.85;100.00
62849;BME280;48941;49.516;8.286;2022-10-31T02:32:43;100850.69;;;10.85;100.00
62849;BME280;48941;49.516;8.286;2022-10-31T02:35:23;100856.94;;;10.84;100.00
62849;BME280;48941;49.516;8.286;2022-10-31T02:38:04;100850.88;;;10.82;100.00
62849;BME280;48941;49.516;8.286;2022-10-31T02:40:37;100849.31;;;10.79;100.00
62849;BME280;48941;49.516;8.286;2022-10-31T02:43:12;100849.75;;;10.73;100.00
62849;BME280;48941;49.516;8.286;2022-10-31T02:45:48;100857.75;;;10.73;100.00
62849;BME280;48941;49.516;8.286;2022-10-31T02:48:22;100843.69;;;10.71;100.00
62849;BME280;48941;49.516;8.286;2022-10-31T02:50:56;100853.38;;;10.72;100.00
62849;BME280;48941;49.516;8.286;2022-10-31T02:53:25;100841.25;;;10.68;100.00
62849;BME280;48941;49.516;8.286;2022-10-31T02:55:58;100839.13;;;10.60;100.00
62849;BME280;48941;49.516;8.286;2022-10-31T02:58:29;100841.19;;;10.56;100.00
62849;BME280;48941;49.516;8.286;2022-10-31T03:01:25;100844.81;;;10.55;100.00
62849;BME280;48941;49.516;8.286;2022-10-31T03:04:09;100840.47;;;10.54;100.00
62849;BME280;48941;49.516;8.286;2022-10-31T03:06:43;100844.91;;;10.54;100.00
62849;BME280;48941;49.516;8.286;2022-10-31T03:09:21;100842.16;;;10.55;100.00
62849;BME280;48941;49.516;8.286;2022-10-31T03:11:54;100838.53;;;10.56;100.00
62849;BME280;48941;49.516;8.286;2022-10-31T03:14:30;100840.13;;;10.59;100.00
62849;BME280;48941;49.516;8.286;2022-10-31T03:17:04;100837.94;;;10.64;100.00
62849;BME280;48941;49.516;8.286;2022-10-31T03:19:39;100843.81;;;10.69;100.00
62849;BME280;48941;49.516;8.286;2022-10-31T03:22:12;100842.72;;;10.72;100.00
62849;BME280;48941;49.516;8.286;2022-10-31T03:24:43;100837.06;;;10.76;100.00
62849;BME280;48941;49.516;8.286;2022-10-31T03:27:14;100845.66;;;10.80;100.00
62849;BME280;48941;49.516;8.286;2022-10-31T03:29:44;100836.47;;;10.84;100.00
62849;BME280;48941;49.516;8.286;2022-10-31T03:32:15;100838.53;;;10.81;100.00
62849;BME280;48941;49.516;8.286;2022-10-31T03:34:47;100838.53;;;10.81;100.00
62849;BME280;48941;49.516;8.286;2022-10-31T03:37:19;100827.88;;;10.81;100.00
62849;BME280;48941;49.516;8.286;2022-10-31T03:39:49;100833.06;;;10.82;100.00
62849;BME280;48941;49.516;8.286;2022-10-31T03:42:21;100836.25;;;10.87;100.00
62849;BME280;48941;49.516;8.286;2022-10-31T03:44:53;100841.50;;;10.89;100.00
62849;BME280;48941;49.516;8.286;2022-10-31T03:47:24;100838.72;;;10.90;100.00
62849;BME280;48941;49.516;8.286;2022-10-31T03:49:54;100849.69;;;10.86;100.00
62849;BME280;48941;49.516;8.286;2022-10-31T03:52:26;100846.28;;;10.84;100.00
62849;BME280;48941;49.516;8.286;2022-10-31T03:54:59;100838.66;;;10.79;100.00
62849;BME280;48941;49.516;8.286;2022-10-31T03:57:35;100845.06;;;10.76;100.00
62849;BME280;48941;49.516;8.286;2022-10-31T04:00:08;100844.09;;;10.77;100.00
62849;BME280;48941;49.516;8.286;2022-10-31T04:02:41;100840.78;;;10.74;100.00
62849;BME280;48941;49.516;8.286;2022-10-31T04:05:11;100837.38;;;10.72;100.00
62849;BME280;48941;49.516;8.286;2022-10-31T04:07:44;100836.53;;;10.71;100.00
62849;BME280;48941;49.516;8.286;2022-10-31T04:10:15;100840.19;;;10.70;100.00
62849;BME280;48941;49.516;8.286;2022-10-31T04:12:47;100833.25;;;10.68;100.00
62849;BME280;48941;49.516;8.286;2022-10-31T04:15:16;100838.47;;;10.69;100.00
62849;BME280;48941;49.516;8.286;2022-10-31T04:17:45;100847.31;;;10.70;100.00
62849;BME280;48941;49.516;8.286;2022-10-31T04:20:17;100845.63;;;10.69;100.00
62849;BME280;48941;49.516;8.286;2022-10-31T04:22:45;100842.97;;;10.69;100.00
62849;BME280;48941;49.516;8.286;2022-10-31T04:25:13;100848.28;;;10.69;100.00
62849;BME280;48941;49.516;8.286;2022-10-31T04:27:41;100844.75;;;10.68;100.00
62849;BME280;48941;49.516;8.286;2022-10-31T04:30:10;100839.56;;;10.67;100.00
62849;BME280;48941;49.516;8.286;2022-10-31T04:32:38;100842.22;;;10.67;100.00
62849;BME280;48941;49.516;8.286;2022-10-31T04:35:06;100843.16;;;10.66;100.00
62849;BME280;48941;49.516;8.286;2022-10-31T04:37:36;100848.59;;;10.64;100.00
62849;BME280;48941;49.516;8.286;2022-10-31T04:40:05;100852.59;;;10.59;100.00
62849;BME280;48941;49.516;8.286;2022-10-31T04:42:33;100851.84;;;10.56;100.00
62849;BME280;48941;49.516;8.286;2022-10-31T04:45:01;100846.63;;;10.55;100.00
62849;BME280;48941;49.516;8.286;2022-10-31T04:47:31;100844.81;;;10.55;100.00
62849;BME280;48941;49.516;8.286;2022-10-31T04:49:59;100841.19;;;10.56;100.00
62849;BME280;48941;49.516;8.286;2022-10-31T04:52:27;100844.34;;;10.62;100.00
62849;BME280;48941;49.516;8.286;2022-10-31T04:54:56;100839.78;;;10.64;100.00
62849;BME280;48941;49.516;8.286;2022-10-31T04:57:25;100839.28;;;10.59;100.00
62849;BME280;48941;49.516;8.286;2022-10-31T04:59:53;100843.13;;;10.54;100.00
62849;BME280;48941;49.516;8.286;2022-10-31T05:02:21;100841.31;;;10.55;100.00
62849;BME280;48941;49.516;8.286;2022-10-31T05:04:49;100838.00;;;10.51;100.00
62849;BME280;48941;49.516;8.286;2022-10-31T05:07:17;100833.75;;;10.49;100.00
62849;BME280;48941;49.516;8.286;2022-10-31T05:09:45;100836.44;;;10.49;100.00
62849;BME280;48941;49.516;8.286;2022-10-31T05:12:14;100831.94;;;10.49;100.00
62849;BME280;48941;49.516;8.286;2022-10-31T05:14:42;100826.63;;;10.49;100.00
62849;BME280;48941;49.516;8.286;2022-10-31T05:17:14;100825.66;;;10.50;100.00
62849;BME280;48941;49.516;8.286;2022-10-31T05:19:42;100823.00;;;10.50;100.00
62849;BME280;48941;49.516;8.286;2022-10-31T05:22:10;100826.63;;;10.49;100.00
62849;BME280;48941;49.516;8.286;2022-10-31T05:24:38;100824.91;;;10.48;100.00
62849;BME280;48941;49.516;8.286;2022-10-31T05:27:06;100825.03;;;10.47;100.00
62849;BME280;48941;49.516;8.286;2022-10-31T05:29:35;100823.56;;;10.43;100.00
62849;BME280;48941;49.516;8.286;2022-10-31T05:32:03;100820.25;;;10.39;100.00
62849;BME280;48941;49.516;8.286;2022-10-31T05:34:32;100819.31;;;10.27;100.00
62849;BME280;48941;49.516;8.286;2022-10-31T05:37:00;100810.91;;;10.21;100.00
62849;BME280;48941;49.516;8.286;2022-10-31T05:39:28;100816.56;;;10.16;100.00
62849;BME280;48941;49.516;8.286;2022-10-31T05:41:56;100822.00;;;10.14;100.00
62849;BME280;48941;49.516;8.286;2022-10-31T05:44:24;100817.00;;;10.10;100.00
62849;BME280;48941;49.516;8.286;2022-10-31T05:46:53;100812.94;;;10.04;100.00
62849;BME280;48941;49.516;8.286;2022-10-31T05:49:21;100803.91;;;10.07;100.00
62849;BME280;48941;49.516;8.286;2022-10-31T05:51:50;100806.44;;;10.08;100.00
62849;BME280;48941;49.516;8.286;2022-10-31T05:54:18;100806.34;;;10.10;100.00
62849;BME280;48941;49.516;8.286;2022-10-31T05:56:46;100813.59;;;10.08;100.00
62849;BME280;48941;49.516;8.286;2022-10-31T05:59:14;100813.69;;;10.06;100.00
62849;BME280;48941;49.516;8.286;2022-10-31T06:01:42;100818.06;;;10.07;100.00
62849;BME280;48941;49.516;8.286;2022-10-31T06:04:12;100821.47;;;10.09;100.00
62849;BME280;48941;49.516;8.286;2022-10-31T06:06:40;100817.63;;;10.13;100.00
62849;BME280;48941;49.516;8.286;2022-10-31T06:09:09;100818.47;;;10.14;100.00
62849;BME280;48941;49.516;8.286;2022-10-31T06:11:37;100820.09;;;10.16;100.00
62849;BME280;48941;49.516;8.286;2022-10-31T06:14:05;100821.66;;;10.19;100.00
62849;BME280;48941;49.516;8.286;2022-10-31T06:16:33;100811.47;;;10.13;100.00
62849;BME280;48941;49.516;8.286;2022-10-31T06:19:01;100817.63;;;10.13;100.00
62849;BME280;48941;49.516;8.286;2022-10-31T06:21:31;100813.03;;;10.15;100.00
62849;BME280;48941;49.516;8.286;2022-10-31T06:23:59;100818.25;;;10.17;100.00
62849;BME280;48941;49.516;8.286;2022-10-31T06:26:27;100813.78;;;10.17;100.00
62849;BME280;48941;49.516;8.286;2022-10-31T06:28:55;100812.72;;;10.20;100.00
62849;BME280;48941;49.516;8.286;2022-10-31T06:31:29;100816.00;;;10.24;100.00
62849;BME280;48941;49.516;8.286;2022-10-31T06:33:57;100812.06;;;10.29;100.00
62849;BME280;48941;49.516;8.286;2022-10-31T06:36:25;100822.63;;;10.31;100.00
62849;BME280;48941;49.516;8.286;2022-10-31T06:38:59;100829.63;;;10.32;100.00
62849;BME280;48941;49.516;8.286;2022-10-31T06:41:28;100825.06;;;10.34;100.00
62849;BME280;48941;49.516;8.286;2022-10-31T06:43:56;100832.59;;;10.40;100.00
62849;BME280;48941;49.516;8.286;2022-10-31T06:46:24;100832.59;;;10.40;100.00
62849;BME280;48941;49.516;8.286;2022-10-31T06:48:52;100827.16;;;10.42;100.00
62849;BME280;48941;49.516;8.286;2022-10-31T06:51:20;100821.63;;;10.45;100.00
62849;BME280;48941;49.516;8.286;2022-10-31T06:53:48;100823.94;;;10.49;100.00
62849;BME280;48941;49.516;8.286;2022-10-31T06:56:17;100826.28;;;10.54;100.00
62849;BME280;48941;49.516;8.286;2022-10-31T06:58:45;100832.97;;;10.60;100.00
62849;BME280;48941;49.516;8.286;2022-10-31T07:01:13;100836.38;;;10.62;100.00
62849;BME280;48941;49.516;8.286;2022-10-31T07:03:41;100837.84;;;10.66;100.00
62849;BME280;48941;49.516;8.286;2022-10-31T07:06:09;100834.00;;;10.70;100.00
62849;BME280;48941;49.516;8.286;2022-10-31T07:08:37;100833.78;;;10.73;100.00
62849;BME280;48941;49.516;8.286;2022-10-31T07:11:05;100827.00;;;10.80;100.00
62849;BME280;48941;49.516;8.286;2022-10-31T07:13:35;100834.69;;;10.85;100.00
62849;BME280;48941;49.516;8.286;2022-10-31T07:16:04;100832.66;;;10.88;100.00
62849;BME280;48941;49.516;8.286;2022-10-31T07:18:33;100841.66;;;10.99;100.00
62849;BME280;48941;49.516;8.286;2022-10-31T07:21:01;100839.47;;;11.04;100.00
62849;BME280;48941;49.516;8.286;2022-10-31T07:23:29;100835.63;;;11.08;100.00
62849;BME280;48941;49.516;8.286;2022-10-31T07:25:58;100835.03;;;11.15;100.00
62849;BME280;48941;49.516;8.286;2022-10-31T07:28:27;100832.75;;;11.22;100.00
62849;BME280;48941;49.516;8.286;2022-10-31T07:30:57;100836.56;;;11.31;100.00
62849;BME280;48941;49.516;8.286;2022-10-31T07:33:25;100837.91;;;11.36;100.00
62849;BME280;48941;49.516;8.286;2022-10-31T07:35:54;100841.06;;;11.42;100.00
62849;BME280;48941;49.516;8.286;2022-10-31T07:38:21;100833.69;;;11.45;100.00
62849;BME280;48941;49.516;8.286;2022-10-31T07:40:50;100824.25;;;11.52;100.00
62849;BME280;48941;49.516;8.286;2022-10-31T07:43:19;100833.47;;;11.60;100.00
62849;BME280;48941;49.516;8.286;2022-10-31T07:45:51;100825.13;;;11.64;100.00
62849;BME280;48941;49.516;8.286;2022-10-31T07:48:21;100832.63;;;11.70;100.00
62849;BME280;48941;49.516;8.286;2022-10-31T07:50:48;100834.84;;;11.76;100.00
62849;BME280;48941;49.516;8.286;2022-10-31T07:53:16;100835.31;;;11.82;100.00
62849;BME280;48941;49.516;8.286;2022-10-31T07:55:44;100833.03;;;11.88;100.00
62849;BME280;48941;49.516;8.286;2022-10-31T07:58:14;100825.28;;;11.97;100.00
62849;BME280;48941;49.516;8.286;2022-10-31T08:00:43;100829.03;;;12.05;100.00
62849;BME280;48941;49.516;8.286;2022-10-31T08:03:13;100822.25;;;12.12;100.00
62849;BME280;48941;49.516;8.286;2022-10-31T08:05:43;100829.66;;;12.20;100.00
62849;BME280;48941;49.516;8.286;2022-10-31T08:08:13;100829.16;;;12.26;100.00
62849;BME280;48941;49.516;8.286;2022-10-31T08:10:41;100829.63;;;12.31;100.00
62849;BME280;48941;49.516;8.286;2022-10-31T08:13:11;100826.22;;;12.41;100.00
62849;BME280;48941;49.516;8.286;2022-10-31T08:15:40;100827.16;;;12.51;100.00
62849;BME280;48941;49.516;8.286;2022-10-31T08:18:12;100828.22;;;12.60;100.00
62849;BME280;48941;49.516;8.286;2022-10-31T08:20:41;100836.94;;;12.73;100.00
62849;BME280;48941;49.516;8.286;2022-10-31T08:23:11;100837.88;;;12.83;100.00
62849;BME280;48941;49.516;8.286;2022-10-31T08:25:40;100831.50;;;12.95;100.00
62849;BME280;48941;49.516;8.286;2022-10-31T08:28:10;100838.66;;;13.06;100.00
62849;BME280;48941;49.516;8.286;2022-10-31T08:30:38;100830.31;;;13.21;99.74
62849;BME280;48941;49.516;8.286;2022-10-31T08:33:10;100823.56;;;13.38;98.51
62849;BME280;48941;49.516;8.286;2022-10-31T08:35:38;100819.00;;;13.49;97.66
62849;BME280;48941;49.516;8.286;2022-10-31T08:38:06;100823.34;;;13.71;97.39
62849;BME280;48941;49.516;8.286;2022-10-31T08:40:36;100830.19;;;13.85;96.10
62849;BME280;48941;49.516;8.286;2022-10-31T08:43:05;100823.75;;;13.98;95.73
62849;BME280;48941;49.516;8.286;2022-10-31T08:45:34;100824.66;;;14.08;95.03
62849;BME280;48941;49.516;8.286;2022-10-31T08:48:04;100828.06;;;14.20;94.83
62849;BME280;48941;49.516;8.286;2022-10-31T08:50:34;100817.38;;;14.29;94.29
62849;BME280;48941;49.516;8.286;2022-10-31T08:53:04;100814.59;;;14.41;93.74
62849;BME280;48941;49.516;8.286;2022-10-31T08:55:33;100813.25;;;14.56;92.68
62849;BME280;48941;49.516;8.286;2022-10-31T08:58:04;100816.94;;;14.65;91.89
62849;BME280;48941;49.516;8.286;2022-10-31T09:00:32;100809.47;;;14.68;91.22
62849;BME280;48941;49.516;8.286;2022-10-31T09:03:02;100809.59;;;14.77;90.85
62849;BME280;48941;49.516;8.286;2022-10-31T09:05:31;100805.53;;;14.82;90.92
62849;BME280;48941;49.516;8.286;2022-10-31T09:08:01;100798.56;;;14.80;91.12
62849;BME280;48941;49.516;8.286;2022-10-31T09:10:31;100798.31;;;14.83;91.05
62849;BME280;48941;49.516;8.286;2022-10-31T09:13:01;100802.28;;;14.88;91.08
62849;BME280;48941;49.516;8.286;2022-10-31T09:15:35;100800.72;;;14.86;91.06
62849;BME280;48941;49.516;8.286;2022-10-31T09:18:05;100798.03;;;14.86;90.96
62849;BME280;48941;49.516;8.286;2022-10-31T09:20:34;100805.22;;;14.85;91.68
62849;BME280;48941;49.516;8.286;2022-10-31T09:23:04;100800.44;;;14.89;91.37
62849;BME280;48941;49.516;8.286;2022-10-31T09:25:33;100800.44;;;14.89;91.41
62849;BME280;48941;49.516;8.286;2022-10-31T09:28:03;100799.47;;;14.90;91.42
62849;BME280;48941;49.516;8.286;2022-10-31T09:30:34;100793.94;;;14.91;91.47
62849;BME280;48941;49.516;8.286;2022-10-31T09:33:05;100796.47;;;14.93;91.71
62849;BME280;48941;49.516;8.286;2022-10-31T09:35:33;100798.72;;;14.98;91.39
62849;BME280;48941;49.516;8.286;2022-10-31T09:38:02;100790.41;;;15.01;91.49
62849;BME280;48941;49.516;8.286;2022-10-31T09:40:32;100789.56;;;15.00;91.60
62849;BME280;48941;49.516;8.286;2022-10-31T09:43:09;100782.78;;;15.06;91.79
62849;BME280;48941;49.516;8.286;2022-10-31T09:45:51;100781.66;;;15.08;91.91
62849;BME280;48941;49.516;8.286;2022-10-31T09:48:30;100780.06;;;15.16;92.26
62849;BME280;48941;49.516;8.286;2022-10-31T09:51:03;100774.16;;;15.22;92.17
62849;BME280;48941;49.516;8.286;2022-10-31T09:53:35;100779.78;;;15.28;92.24
62849;BME280;48941;49.516;8.286;2022-10-31T09:56:07;100781.06;;;15.34;92.15
62849;BME280;48941;49.516;8.286;2022-10-31T09:58:42;100781.91;;;15.34;92.36
62849;BME280;48941;49.516;8.286;2022-10-31T10:01:21;100775.25;;;15.39;92.42
62849;BME280;48941;49.516;8.286;2022-10-31T10:03:54;100769.84;;;15.48;92.25
62849;BME280;48941;49.516;8.286;2022-10-31T10:06:28;100765.03;;;15.62;91.49
62849;BME280;48941;49.516;8.286;2022-10-31T10:08:56;100767.13;;;15.68;91.41
62849;BME280;48941;49.516;8.286;2022-10-31T10:11:36;100777.69;;;15.79;91.14
62849;BME280;48941;49.516;8.286;2022-10-31T10:14:19;100781.72;;;15.93;89.67
62849;BME280;48941;49.516;8.286;2022-10-31T10:17:01;100769.09;;;16.03;88.91
62849;BME280;48941;49.516;8.286;2022-10-31T10:19:50;100770.34;;;16.09;88.80
62849;BME280;48941;49.516;8.286;2022-10-31T10:22:27;100773.47;;;16.32;88.07
62849;BME280;48941;49.516;8.286;2022-10-31T10:25:08;100771.56;;;16.42;87.04
62849;BME280;48941;49.516;8.286;2022-10-31T10:27:47;100768.50;;;16.55;86.15
62849;BME280;48941;49.516;8.286;2022-10-31T10:30:19;100762.75;;;16.68;85.87
62849;BME280;48941;49.516;8.286;2022-10-31T10:32:51;100756.53;;;16.85;85.15
62849;BME280;48941;49.516;8.286;2022-10-31T10:35:24;100752.69;;;16.88;85.10
62849;BME280;48941;49.516;8.286;2022-10-31T10:37:57;100755.47;;;16.96;84.81
62849;BME280;48941;49.516;8.286;2022-10-31T10:40:27;100749.50;;;17.10;84.36
62849;BME280;48941;49.516;8.286;2022-10-31T10:43:01;100743.34;;;17.18;83.51
62849;BME280;48941;49.516;8.286;2022-10-31T10:45:50;100744.38;;;17.25;82.69
62849;BME280;48941;49.516;8.286;2022-10-31T10:48:54;100737.91;;;17.36;82.60
62849;BME280;48941;49.516;8.286;2022-10-31T10:51:28;100731.59;;;17.45;80.73
62849;BME280;48941;49.516;8.286;2022-10-31T10:54:37;100727.13;;;17.62;80.71
62849;BME280;48941;49.516;8.286;2022-10-31T10:57:14;100736.09;;;17.79;80.23
62849;BME280;48941;49.516;8.286;2022-10-31T10:59:47;100725.66;;;17.76;79.98
62849;BME280;48941;49.516;8.286;2022-10-31T11:02:17;100725.59;;;17.86;79.58
62849;BME280;48941;49.516;8.286;2022-10-31T11:04:49;100714.16;;;18.00;78.93
62849;BME280;48941;49.516;8.286;2022-10-31T11:07:18;100715.50;;;17.96;78.34
62849;BME280;48941;49.516;8.286;2022-10-31T11:09:47;100708.13;;;18.06;78.47
62849;BME280;48941;49.516;8.286;2022-10-31T11:12:20;100707.47;;;18.13;77.78
62849;BME280;48941;49.516;8.286;2022-10-31T11:14:52;100706.13;;;18.17;77.68
62849;BME280;48941;49.516;8.286;2022-10-31T11:17:28;100696.22;;;18.25;77.81
62849;BME280;48941;49.516;8.286;2022-10-31T11:20:05;100699.06;;;18.24;77.12
62849;BME280;48941;49.516;8.286;2022-10-31T11:22:33;100695.72;;;18.30;76.97
62849;BME280;48941;49.516;8.286;2022-10-31T11:25:11;100694.91;;;18.46;76.11
62849;BME280;48941;49.516;8.286;2022-10-31T11:27:39;100686.28;;;18.59;75.19
62849;BME280;48941;49.516;8.286;2022-10-31T11:30:09;100687.84;;;18.69;75.47
62849;BME280;48941;49.516;8.286;2022-10-31T11:32:43;100692.41;;;18.85;74.36
62849;BME280;48941;49.516;8.286;2022-10-31T11:35:17;100688.16;;;18.91;74.01
62849;BME280;48941;49.516;8.286;2022-10-31T11:37:47;100686.16;;;18.85;73.19
62849;BME280;48941;49.516;8.286;2022-10-31T11:40:17;100676.84;;;18.71;74.01
62849;BME280;48941;49.516;8.286;2022-10-31T11:42:47;100660.50;;;18.64;74.57
62849;BME280;48941;49.516;8.286;2022-10-31T11:45:18;100656.97;;;18.64;74.92
62849;BME280;48941;49.516;8.286;2022-10-31T11:47:54;100646.34;;;18.62;75.74
62849;BME280;48941;49.516;8.286;2022-10-31T11:50:31;100642.97;;;18.68;75.69
62849;BME280;48941;49.516;8.286;2022-10-31T11:53:01;100649.22;;;18.77;75.06
62849;BME280;48941;49.516;8.286;2022-10-31T11:55:31;100653.59;;;18.62;76.22
62849;BME280;48941;49.516;8.286;2022-10-31T11:58:00;100646.19;;;18.56;76.33
62849;BME280;48941;49.516;8.286;2022-10-31T12:00:30;100645.00;;;18.50;77.12
62849;BME280;48941;49.516;8.286;2022-10-31T12:03:12;100643.81;;;18.44;77.98
62849;BME280;48941;49.516;8.286;2022-10-31T12:05:44;100630.50;;;18.43;78.07
62849;BME280;48941;49.516;8.286;2022-10-31T12:08:14;100621.41;;;18.36;78.41
62849;BME280;48941;49.516;8.286;2022-10-31T12:10:56;100626.59;;;18.37;78.52
62849;BME280;48941;49.516;8.286;2022-10-31T12:13:33;100617.38;;;18.40;77.97
62849;BME280;48941;49.516;8.286;2022-10-31T12:16:08;100618.03;;;18.34;78.36
62849;BME280;48941;49.516;8.286;2022-10-31T12:18:49;100618.38;;;18.30;77.88
62849;BME280;48941;49.516;8.286;2022-10-31T12:21:34;100609.59;;;18.28;77.75
62849;BME280;48941;49.516;8.286;2022-10-31T12:24:16;100606.22;;;18.26;77.92
62849;BME280;48941;49.516;8.286;2022-10-31T12:26:54;100616.34;;;18.24;78.07
62849;BME280;48941;49.516;8.286;2022-10-31T12:29:37;100618.38;;;18.22;78.05
62849;BME280;48941;49.516;8.286;2022-10-31T12:32:18;100616.69;;;18.21;78.84
62849;BME280;48941;49.516;8.286;2022-10-31T12:35:13;100617.84;;;18.19;79.04
62849;BME280;48941;49.516;8.286;2022-10-31T12:37:52;100609.09;;;18.17;79.05
62849;BME280;48941;49.516;8.286;2022-10-31T12:40:34;100601.81;;;18.09;78.58
62849;BME280;48941;49.516;8.286;2022-10-31T12:43:15;100600.00;;;18.01;79.16
62849;BME280;48941;49.516;8.286;2022-10-31T12:45:52;100584.31;;;17.97;79.83
62849;BME280;48941;49.516;8.286;2022-10-31T12:48:39;100579.25;;;17.94;80.04
62849;BME280;48941;49.516;8.286;2022-10-31T12:51:15;100558.03;;;17.90;80.01
62849;BME280;48941;49.516;8.286;2022-10-31T12:53:59;100552.31;;;17.85;81.12
62849;BME280;48941;49.516;8.286;2022-10-31T12:56:42;100545.03;;;17.78;81.58
62849;BME280;48941;49.516;8.286;2022-10-31T12:59:17;100537.94;;;17.77;81.20
62849;BME280;48941;49.516;8.286;2022-10-31T13:01:50;100538.75;;;17.69;81.75
62849;BME280;48941;49.516;8.286;2022-10-31T13:04:24;100536.75;;;17.71;82.24
62849;BME280;48941;49.516;8.286;2022-10-31T13:06:59;100542.31;;;17.69;82.29